sensor_id;sensor_type;location;lat;lon;timestamp;P1;durP1;ratioP1;P2;durP2;ratioP2
72493;SDS011;60520;49.182;-0.348;2022-08-19T00:00:11;1.60;;;1.50;;
72493;SDS011;60520;49.182;-0.348;2022-08-19T00:02:40;1.65;;;1.52;;
72493;SDS011;60520;49.182;-0.348;2022-08-19T00:05:08;1.75;;;1.52;;
72493;SDS011;60520;49.182;-0.348;2022-08-19T00:07:35;1.75;;;1.60;;
72493;SDS011;60520;49.182;-0.348;2022-08-19T00:10:03;1.98;;;1.70;;
72493;SDS011;60520;49.182;-0.348;2022-08-19T00:12:31;2.28;;;1.88;;
72493;SDS011;60520;49.182;-0.348;2022-08-19T00:14:58;1.98;;;1.63;;
72493;SDS011;60520;49.182;-0.348;2022-08-19T00:17:26;2.40;;;1.58;;
72493;SDS011;60520;49.182;-0.348;2022-08-19T00:19:53;2.70;;;1.88;;
72493;SDS011;60520;49.182;-0.348;2022-08-19T00:22:20;1.65;;;1.30;;
72493;SDS011;60520;49.182;-0.348;2022-08-19T00:24:48;1.55;;;1.40;;
72493;SDS011;60520;49.182;-0.348;2022-08-19T00:27:15;1.60;;;1.50;;
72493;SDS011;60520;49.182;-0.348;2022-08-19T00:29:42;2.17;;;1.60;;
72493;SDS011;60520;49.182;-0.348;2022-08-19T00:32:09;2.45;;;1.63;;
72493;SDS011;60520;49.182;-0.348;2022-08-19T00:34:38;1.50;;;1.40;;
72493;SDS011;60520;49.182;-0.348;2022-08-19T00:37:05;2.22;;;1.67;;
72493;SDS011;60520;49.182;-0.348;2022-08-19T00:39:32;1.50;;;1.40;;
72493;SDS011;60520;49.182;-0.348;2022-08-19T00:41:59;1.60;;;1.50;;
72493;SDS011;60520;49.182;-0.348;2022-08-19T00:44:27;1.63;;;1.45;;
72493;SDS011;60520;49.182;-0.348;2022-08-19T00:46:56;1.77;;;1.40;;
72493;SDS011;60520;49.182;-0.348;2022-08-19T00:49:25;1.70;;;1.60;;
72493;SDS011;60520;49.182;-0.348;2022-08-19T00:51:55;1.60;;;1.50;;
72493;SDS011;60520;49.182;-0.348;2022-08-19T00:54:24;2.20;;;1.55;;
72493;SDS011;60520;49.182;-0.348;2022-08-19T00:56:51;1.70;;;1.42;;
72493;SDS011;60520;49.182;-0.348;2022-08-19T00:59:18;1.85;;;1.55;;
72493;SDS011;60520;49.182;-0.348;2022-08-19T01:01:46;1.98;;;1.77;;
72493;SDS011;60520;49.182;-0.348;2022-08-19T01:04:13;1.48;;;1.25;;
72493;SDS011;60520;49.182;-0.348;2022-08-19T01:06:40;2.45;;;1.80;;
72493;SDS011;60520;49.182;-0.348;2022-08-19T01:09:09;1.55;;;1.45;;
72493;SDS011;60520;49.182;-0.348;2022-08-19T01:11:37;1.98;;;1.42;;
72493;SDS011;60520;49.182;-0.348;2022-08-19T01:14:05;2.30;;;1.60;;
72493;SDS011;60520;49.182;-0.348;2022-08-19T01:16:32;2.08;;;1.50;;
72493;SDS011;60520;49.182;-0.348;2022-08-19T01:19:02;1.67;;;1.58;;
72493;SDS011;60520;49.182;-0.348;2022-08-19T01:21:31;2.55;;;1.83;;
72493;SDS011;60520;49.182;-0.348;2022-08-19T01:24:00;2.00;;;1.40;;
72493;SDS011;60520;49.182;-0.348;2022-08-19T01:26:27;1.55;;;1.35;;
72493;SDS011;60520;49.182;-0.348;2022-08-19T01:28:56;1.52;;;1.27;;
72493;SDS011;60520;49.182;-0.348;2022-08-19T01:31:24;2.00;;;1.55;;
72493;SDS011;60520;49.182;-0.348;2022-08-19T01:33:55;2.75;;;1.40;;
72493;SDS011;60520;49.182;-0.348;2022-08-19T01:36:24;1.80;;;1.42;;
72493;SDS011;60520;49.182;-0.348;2022-08-19T01:38:51;1.50;;;1.40;;
72493;SDS011;60520;49.182;-0.348;2022-08-19T01:41:20;2.15;;;1.40;;
72493;SDS011;60520;49.182;-0.348;2022-08-19T01:43:48;1.52;;;1.42;;
72493;SDS011;60520;49.182;-0.348;2022-08-19T01:46:16;2.47;;;1.52;;
72493;SDS011;60520;49.182;-0.348;2022-08-19T01:48:43;1.67;;;1.42;;
72493;SDS011;60520;49.182;-0.348;2022-08-19T01:51:10;1.80;;;1.38;;
72493;SDS011;60520;49.182;-0.348;2022-08-19T01:53:38;1.40;;;1.30;;
72493;SDS011;60520;49.182;-0.348;2022-08-19T01:56:06;1.48;;;1.38;;
72493;SDS011;60520;49.182;-0.348;2022-08-19T01:58:36;1.63;;;1.35;;
72493;SDS011;60520;49.182;-0.348;2022-08-19T02:01:05;1.52;;;1.35;;
72493;SDS011;60520;49.182;-0.348;2022-08-19T02:03:32;2.08;;;1.50;;
72493;SDS011;60520;49.182;-0.348;2022-08-19T02:06:00;1.98;;;1.63;;
72493;SDS011;60520;49.182;-0.348;2022-08-19T02:08:30;1.40;;;1.30;;
72493;SDS011;60520;49.182;-0.348;2022-08-19T02:10:58;2.10;;;1.42;;
72493;SDS011;60520;49.182;-0.348;2022-08-19T02:13:25;1.67;;;1.33;;
72493;SDS011;60520;49.182;-0.348;2022-08-19T02:15:54;1.58;;;1.48;;
72493;SDS011;60520;49.182;-0.348;2022-08-19T02:18:21;1.50;;;1.40;;
72493;SDS011;60520;49.182;-0.348;2022-08-19T02:20:48;1.48;;;1.38;;
72493;SDS011;60520;49.182;-0.348;2022-08-19T02:23:16;1.40;;;1.30;;
72493;SDS011;60520;49.182;-0.348;2022-08-19T02:25:43;1.58;;;1.30;;
72493;SDS011;60520;49.182;-0.348;2022-08-19T02:28:11;2.28;;;1.58;;
72493;SDS011;60520;49.182;-0.348;2022-08-19T02:30:38;1.52;;;1.30;;
72493;SDS011;60520;49.182;-0.348;2022-08-19T02:33:06;1.92;;;1.35;;
72493;SDS011;60520;49.182;-0.348;2022-08-19T02:35:33;2.15;;;1.38;;
72493;SDS011;60520;49.182;-0.348;2022-08-19T02:38:01;1.60;;;1.30;;
72493;SDS011;60520;49.182;-0.348;2022-08-19T02:40:48;1.27;;;1.17;;
72493;SDS011;60520;49.182;-0.348;2022-08-19T02:43:16;1.70;;;1.33;;
72493;SDS011;60520;49.182;-0.348;2022-08-19T02:45:45;1.23;;;1.10;;
72493;SDS011;60520;49.182;-0.348;2022-08-19T02:48:14;1.50;;;1.38;;
72493;SDS011;60520;49.182;-0.348;2022-08-19T02:50:42;1.92;;;1.27;;
72493;SDS011;60520;49.182;-0.348;2022-08-19T02:53:09;2.45;;;1.50;;
72493;SDS011;60520;49.182;-0.348;2022-08-19T02:55:42;1.50;;;1.40;;
72493;SDS011;60520;49.182;-0.348;2022-08-19T02:58:10;2.20;;;1.33;;
72493;SDS011;60520;49.182;-0.348;2022-08-19T03:00:41;1.88;;;1.38;;
72493;SDS011;60520;49.182;-0.348;2022-08-19T03:03:08;1.35;;;1.25;;
72493;SDS011;60520;49.182;-0.348;2022-08-19T03:05:36;1.75;;;1.30;;
72493;SDS011;60520;49.182;-0.348;2022-08-19T03:08:04;1.20;;;1.10;;
72493;SDS011;60520;49.182;-0.348;2022-08-19T03:10:31;1.50;;;1.40;;
72493;SDS011;60520;49.182;-0.348;2022-08-19T03:12:58;2.08;;;1.35;;
72493;SDS011;60520;49.182;-0.348;2022-08-19T03:15:25;2.28;;;1.30;;
72493;SDS011;60520;49.182;-0.348;2022-08-19T03:17:52;2.28;;;1.20;;
72493;SDS011;60520;49.182;-0.348;2022-08-19T03:20:19;1.95;;;1.30;;
72493;SDS011;60520;49.182;-0.348;2022-08-19T03:22:48;2.65;;;1.50;;
72493;SDS011;60520;49.182;-0.348;2022-08-19T03:25:15;2.05;;;1.38;;
72493;SDS011;60520;49.182;-0.348;2022-08-19T03:27:42;1.58;;;1.17;;
72493;SDS011;60520;49.182;-0.348;2022-08-19T03:30:10;1.77;;;1.30;;
72493;SDS011;60520;49.182;-0.348;2022-08-19T03:32:38;1.40;;;1.13;;
72493;SDS011;60520;49.182;-0.348;2022-08-19T03:35:05;2.15;;;1.15;;
72493;SDS011;60520;49.182;-0.348;2022-08-19T03:37:33;2.03;;;1.20;;
72493;SDS011;60520;49.182;-0.348;2022-08-19T03:40:02;1.58;;;1.40;;
72493;SDS011;60520;49.182;-0.348;2022-08-19T03:42:29;1.38;;;1.20;;
72493;SDS011;60520;49.182;-0.348;2022-08-19T03:44:57;1.67;;;1.25;;
72493;SDS011;60520;49.182;-0.348;2022-08-19T03:47:24;2.08;;;1.38;;
72493;SDS011;60520;49.182;-0.348;2022-08-19T03:49:51;1.70;;;1.30;;
72493;SDS011;60520;49.182;-0.348;2022-08-19T03:52:18;1.85;;;1.25;;
72493;SDS011;60520;49.182;-0.348;2022-08-19T03:54:45;1.65;;;1.20;;
72493;SDS011;60520;49.182;-0.348;2022-08-19T03:57:14;1.77;;;1.35;;
72493;SDS011;60520;49.182;-0.348;2022-08-19T03:59:41;1.50;;;1.10;;
72493;SDS011;60520;49.182;-0.348;2022-08-19T04:02:09;1.85;;;1.30;;
72493;SDS011;60520;49.182;-0.348;2022-08-19T04:04:37;1.77;;;1.10;;
72493;SDS011;60520;49.182;-0.348;2022-08-19T04:07:04;1.60;;;1.25;;
72493;SDS011;60520;49.182;-0.348;2022-08-19T04:09:33;1.35;;;1.25;;
72493;SDS011;60520;49.182;-0.348;2022-08-19T04:12:01;1.40;;;1.20;;
72493;SDS011;60520;49.182;-0.348;2022-08-19T04:14:32;1.42;;;1.30;;
72493;SDS011;60520;49.182;-0.348;2022-08-19T04:16:59;1.20;;;1.00;;
72493;SDS011;60520;49.182;-0.348;2022-08-19T04:19:29;1.55;;;1.20;;
72493;SDS011;60520;49.182;-0.348;2022-08-19T04:21:57;1.80;;;1.27;;
72493;SDS011;60520;49.182;-0.348;2022-08-19T04:24:24;1.50;;;1.40;;
72493;SDS011;60520;49.182;-0.348;2022-08-19T04:26:51;2.00;;;1.17;;
72493;SDS011;60520;49.182;-0.348;2022-08-19T04:29:20;1.27;;;1.00;;
72493;SDS011;60520;49.182;-0.348;2022-08-19T04:31:51;1.52;;;1.20;;
72493;SDS011;60520;49.182;-0.348;2022-08-19T04:34:20;1.40;;;1.00;;
72493;SDS011;60520;49.182;-0.348;2022-08-19T04:36:48;2.38;;;1.25;;
72493;SDS011;60520;49.182;-0.348;2022-08-19T04:39:17;1.92;;;1.40;;
72493;SDS011;60520;49.182;-0.348;2022-08-19T04:41:45;1.52;;;1.27;;
72493;SDS011;60520;49.182;-0.348;2022-08-19T04:44:29;1.52;;;1.20;;
72493;SDS011;60520;49.182;-0.348;2022-08-19T04:46:58;1.45;;;1.10;;
72493;SDS011;60520;49.182;-0.348;2022-08-19T04:49:25;1.30;;;1.20;;
72493;SDS011;60520;49.182;-0.348;2022-08-19T04:51:53;1.90;;;1.45;;
72493;SDS011;60520;49.182;-0.348;2022-08-19T04:54:21;1.92;;;1.33;;
72493;SDS011;60520;49.182;-0.348;2022-08-19T04:56:50;2.50;;;1.42;;
72493;SDS011;60520;49.182;-0.348;2022-08-19T04:59:17;2.03;;;1.38;;
72493;SDS011;60520;49.182;-0.348;2022-08-19T05:01:45;1.88;;;1.25;;
72493;SDS011;60520;49.182;-0.348;2022-08-19T05:04:16;1.45;;;1.20;;
72493;SDS011;60520;49.182;-0.348;2022-08-19T05:06:44;1.85;;;1.20;;
72493;SDS011;60520;49.182;-0.348;2022-08-19T05:09:12;1.60;;;1.10;;
72493;SDS011;60520;49.182;-0.348;2022-08-19T05:11:39;1.15;;;0.95;;
72493;SDS011;60520;49.182;-0.348;2022-08-19T05:14:07;1.65;;;1.30;;
72493;SDS011;60520;49.182;-0.348;2022-08-19T05:16:34;1.63;;;1.10;;
72493;SDS011;60520;49.182;-0.348;2022-08-19T05:19:01;2.35;;;1.50;;
72493;SDS011;60520;49.182;-0.348;2022-08-19T05:21:47;1.65;;;1.17;;
72493;SDS011;60520;49.182;-0.348;2022-08-19T05:24:32;1.17;;;1.08;;
72493;SDS011;60520;49.182;-0.348;2022-08-19T05:27:00;1.88;;;1.10;;
72493;SDS011;60520;49.182;-0.348;2022-08-19T05:29:28;1.33;;;1.23;;
72493;SDS011;60520;49.182;-0.348;2022-08-19T05:31:56;1.70;;;1.27;;
72493;SDS011;60520;49.182;-0.348;2022-08-19T05:34:23;1.17;;;1.00;;
72493;SDS011;60520;49.182;-0.348;2022-08-19T05:36:53;1.35;;;1.08;;
72493;SDS011;60520;49.182;-0.348;2022-08-19T05:39:22;1.42;;;1.20;;
72493;SDS011;60520;49.182;-0.348;2022-08-19T05:41:50;1.10;;;0.90;;
72493;SDS011;60520;49.182;-0.348;2022-08-19T05:44:19;1.88;;;1.10;;
72493;SDS011;60520;49.182;-0.348;2022-08-19T05:46:47;1.38;;;1.10;;
72493;SDS011;60520;49.182;-0.348;2022-08-19T05:49:18;1.23;;;1.13;;
72493;SDS011;60520;49.182;-0.348;2022-08-19T05:51:45;2.03;;;1.00;;
72493;SDS011;60520;49.182;-0.348;2022-08-19T05:54:13;1.35;;;1.13;;
72493;SDS011;60520;49.182;-0.348;2022-08-19T05:56:41;1.25;;;1.00;;
72493;SDS011;60520;49.182;-0.348;2022-08-19T05:59:09;1.45;;;1.10;;
72493;SDS011;60520;49.182;-0.348;2022-08-19T06:01:38;1.20;;;1.10;;
72493;SDS011;60520;49.182;-0.348;2022-08-19T06:04:05;1.60;;;1.20;;
72493;SDS011;60520;49.182;-0.348;2022-08-19T06:06:32;1.40;;;1.05;;
72493;SDS011;60520;49.182;-0.348;2022-08-19T06:09:00;1.52;;;1.00;;
72493;SDS011;60520;49.182;-0.348;2022-08-19T06:11:33;1.20;;;1.05;;
72493;SDS011;60520;49.182;-0.348;2022-08-19T06:14:02;1.27;;;1.10;;
72493;SDS011;60520;49.182;-0.348;2022-08-19T06:16:30;1.20;;;1.00;;
72493;SDS011;60520;49.182;-0.348;2022-08-19T06:19:00;1.52;;;1.10;;
72493;SDS011;60520;49.182;-0.348;2022-08-19T06:21:28;1.08;;;0.80;;
72493;SDS011;60520;49.182;-0.348;2022-08-19T06:23:55;0.85;;;0.85;;
72493;SDS011;60520;49.182;-0.348;2022-08-19T06:26:23;1.17;;;0.90;;
72493;SDS011;60520;49.182;-0.348;2022-08-19T06:28:52;1.77;;;1.10;;
72493;SDS011;60520;49.182;-0.348;2022-08-19T06:31:20;1.48;;;1.10;;
72493;SDS011;60520;49.182;-0.348;2022-08-19T06:33:49;1.10;;;1.00;;
72493;SDS011;60520;49.182;-0.348;2022-08-19T06:36:17;1.52;;;1.10;;
72493;SDS011;60520;49.182;-0.348;2022-08-19T06:38:44;1.00;;;0.90;;
72493;SDS011;60520;49.182;-0.348;2022-08-19T06:41:11;1.30;;;1.10;;
72493;SDS011;60520;49.182;-0.348;2022-08-19T06:43:38;1.85;;;1.20;;
72493;SDS011;60520;49.182;-0.348;2022-08-19T06:46:10;1.38;;;0.90;;
72493;SDS011;60520;49.182;-0.348;2022-08-19T06:48:38;1.77;;;0.80;;
72493;SDS011;60520;49.182;-0.348;2022-08-19T06:51:05;1.88;;;1.10;;
72493;SDS011;60520;49.182;-0.348;2022-08-19T06:53:32;1.20;;;0.88;;
72493;SDS011;60520;49.182;-0.348;2022-08-19T06:55:59;1.10;;;1.00;;
72493;SDS011;60520;49.182;-0.348;2022-08-19T06:58:27;1.38;;;1.00;;
72493;SDS011;60520;49.182;-0.348;2022-08-19T07:00:57;1.65;;;1.15;;
72493;SDS011;60520;49.182;-0.348;2022-08-19T07:03:27;1.30;;;1.10;;
72493;SDS011;60520;49.182;-0.348;2022-08-19T07:05:55;1.75;;;0.90;;
72493;SDS011;60520;49.182;-0.348;2022-08-19T07:08:22;1.65;;;1.10;;
72493;SDS011;60520;49.182;-0.348;2022-08-19T07:10:52;1.38;;;1.10;;
72493;SDS011;60520;49.182;-0.348;2022-08-19T07:13:19;1.80;;;0.98;;
72493;SDS011;60520;49.182;-0.348;2022-08-19T07:15:47;1.45;;;1.00;;
72493;SDS011;60520;49.182;-0.348;2022-08-19T07:18:15;1.98;;;1.00;;
72493;SDS011;60520;49.182;-0.348;2022-08-19T07:20:43;1.00;;;0.90;;
72493;SDS011;60520;49.182;-0.348;2022-08-19T07:23:11;1.10;;;0.77;;
72493;SDS011;60520;49.182;-0.348;2022-08-19T07:25:38;2.53;;;1.00;;
72493;SDS011;60520;49.182;-0.348;2022-08-19T07:28:05;1.05;;;0.85;;
72493;SDS011;60520;49.182;-0.348;2022-08-19T07:30:35;1.48;;;1.10;;
72493;SDS011;60520;49.182;-0.348;2022-08-19T07:33:03;1.95;;;1.00;;
72493;SDS011;60520;49.182;-0.348;2022-08-19T07:35:30;1.10;;;0.95;;
72493;SDS011;60520;49.182;-0.348;2022-08-19T07:37:59;1.17;;;0.90;;
72493;SDS011;60520;49.182;-0.348;2022-08-19T07:40:28;1.45;;;0.80;;
72493;SDS011;60520;49.182;-0.348;2022-08-19T07:42:55;1.67;;;1.00;;
72493;SDS011;60520;49.182;-0.348;2022-08-19T07:45:23;1.30;;;1.02;;
72493;SDS011;60520;49.182;-0.348;2022-08-19T07:47:50;1.90;;;0.88;;
72493;SDS011;60520;49.182;-0.348;2022-08-19T07:50:17;0.93;;;0.80;;
72493;SDS011;60520;49.182;-0.348;2022-08-19T07:52:45;1.55;;;1.08;;
72493;SDS011;60520;49.182;-0.348;2022-08-19T07:55:13;1.45;;;1.20;;
72493;SDS011;60520;49.182;-0.348;2022-08-19T07:57:40;1.20;;;0.98;;
72493;SDS011;60520;49.182;-0.348;2022-08-19T08:00:08;1.30;;;1.00;;
72493;SDS011;60520;49.182;-0.348;2022-08-19T08:02:35;1.23;;;0.90;;
72493;SDS011;60520;49.182;-0.348;2022-08-19T08:05:04;1.13;;;0.85;;
72493;SDS011;60520;49.182;-0.348;2022-08-19T08:07:48;1.40;;;0.88;;
72493;SDS011;60520;49.182;-0.348;2022-08-19T08:10:34;1.88;;;1.00;;
72493;SDS011;60520;49.182;-0.348;2022-08-19T08:13:02;1.10;;;0.82;;
72493;SDS011;60520;49.182;-0.348;2022-08-19T08:15:30;1.13;;;0.90;;
72493;SDS011;60520;49.182;-0.348;2022-08-19T08:17:57;1.27;;;0.88;;
72493;SDS011;60520;49.182;-0.348;2022-08-19T08:20:24;1.00;;;0.90;;
72493;SDS011;60520;49.182;-0.348;2022-08-19T08:22:51;1.65;;;1.13;;
72493;SDS011;60520;49.182;-0.348;2022-08-19T08:25:37;3.70;;;1.00;;
72493;SDS011;60520;49.182;-0.348;2022-08-19T08:28:05;1.30;;;0.90;;
72493;SDS011;60520;49.182;-0.348;2022-08-19T08:30:34;1.75;;;0.80;;
72493;SDS011;60520;49.182;-0.348;2022-08-19T08:33:02;1.80;;;1.10;;
72493;SDS011;60520;49.182;-0.348;2022-08-19T08:35:30;1.20;;;0.93;;
72493;SDS011;60520;49.182;-0.348;2022-08-19T08:37:58;1.00;;;0.80;;
72493;SDS011;60520;49.182;-0.348;2022-08-19T08:40:27;1.73;;;1.00;;
72493;SDS011;60520;49.182;-0.348;2022-08-19T08:42:57;0.98;;;0.70;;
72493;SDS011;60520;49.182;-0.348;2022-08-19T08:45:26;1.40;;;0.90;;
72493;SDS011;60520;49.182;-0.348;2022-08-19T08:47:55;1.10;;;0.93;;
72493;SDS011;60520;49.182;-0.348;2022-08-19T08:50:25;1.48;;;1.10;;
72493;SDS011;60520;49.182;-0.348;2022-08-19T08:52:55;1.23;;;0.90;;
72493;SDS011;60520;49.182;-0.348;2022-08-19T08:55:24;0.85;;;0.85;;
72493;SDS011;60520;49.182;-0.348;2022-08-19T08:57:52;0.90;;;0.70;;
72493;SDS011;60520;49.182;-0.348;2022-08-19T09:00:23;0.73;;;0.70;;
72493;SDS011;60520;49.182;-0.348;2022-08-19T09:02:51;0.90;;;0.70;;
72493;SDS011;60520;49.182;-0.348;2022-08-19T09:05:18;1.42;;;1.02;;
72493;SDS011;60520;49.182;-0.348;2022-08-19T09:07:48;1.17;;;0.70;;
72493;SDS011;60520;49.182;-0.348;2022-08-19T09:10:19;0.90;;;0.82;;
72493;SDS011;60520;49.182;-0.348;2022-08-19T09:12:53;1.30;;;0.93;;
72493;SDS011;60520;49.182;-0.348;2022-08-19T09:15:25;0.73;;;0.73;;
72493;SDS011;60520;49.182;-0.348;2022-08-19T09:17:58;0.95;;;0.80;;
72493;SDS011;60520;49.182;-0.348;2022-08-19T09:20:26;1.60;;;0.80;;
72493;SDS011;60520;49.182;-0.348;2022-08-19T09:22:54;1.08;;;0.82;;
72493;SDS011;60520;49.182;-0.348;2022-08-19T09:25:21;0.90;;;0.70;;
72493;SDS011;60520;49.182;-0.348;2022-08-19T09:27:49;1.13;;;0.80;;
72493;SDS011;60520;49.182;-0.348;2022-08-19T09:30:18;0.73;;;0.73;;
72493;SDS011;60520;49.182;-0.348;2022-08-19T09:32:48;0.98;;;0.88;;
72493;SDS011;60520;49.182;-0.348;2022-08-19T09:35:17;1.25;;;0.80;;
72493;SDS011;60520;49.182;-0.348;2022-08-19T09:37:45;1.35;;;0.80;;
72493;SDS011;60520;49.182;-0.348;2022-08-19T09:40:13;1.33;;;0.70;;
72493;SDS011;60520;49.182;-0.348;2022-08-19T09:42:40;1.05;;;0.80;;
72493;SDS011;60520;49.182;-0.348;2022-08-19T09:45:08;1.40;;;0.85;;
72493;SDS011;60520;49.182;-0.348;2022-08-19T09:47:36;1.40;;;0.80;;
72493;SDS011;60520;49.182;-0.348;2022-08-19T09:50:05;1.38;;;0.77;;
72493;SDS011;60520;49.182;-0.348;2022-08-19T09:52:33;0.95;;;0.90;;
72493;SDS011;60520;49.182;-0.348;2022-08-19T09:55:01;1.52;;;0.65;;
72493;SDS011;60520;49.182;-0.348;2022-08-19T09:57:28;1.33;;;0.70;;
72493;SDS011;60520;49.182;-0.348;2022-08-19T09:59:56;0.90;;;0.60;;
72493;SDS011;60520;49.182;-0.348;2022-08-19T10:02:23;0.70;;;0.65;;
72493;SDS011;60520;49.182;-0.348;2022-08-19T10:04:50;1.58;;;0.82;;
72493;SDS011;60520;49.182;-0.348;2022-08-19T10:07:37;0.77;;;0.75;;
72493;SDS011;60520;49.182;-0.348;2022-08-19T10:10:04;0.75;;;0.60;;
72493;SDS011;60520;49.182;-0.348;2022-08-19T10:12:32;1.17;;;0.75;;
72493;SDS011;60520;49.182;-0.348;2022-08-19T10:14:59;1.02;;;0.82;;
72493;SDS011;60520;49.182;-0.348;2022-08-19T10:17:27;0.95;;;0.80;;
72493;SDS011;60520;49.182;-0.348;2022-08-19T10:19:54;0.80;;;0.80;;
72493;SDS011;60520;49.182;-0.348;2022-08-19T10:22:21;1.13;;;0.70;;
72493;SDS011;60520;49.182;-0.348;2022-08-19T10:24:50;1.52;;;0.80;;
72493;SDS011;60520;49.182;-0.348;2022-08-19T10:27:17;1.38;;;0.90;;
72493;SDS011;60520;49.182;-0.348;2022-08-19T10:29:44;0.70;;;0.60;;
72493;SDS011;60520;49.182;-0.348;2022-08-19T10:32:13;1.10;;;0.80;;
72493;SDS011;60520;49.182;-0.348;2022-08-19T10:34:40;1.05;;;0.63;;
72493;SDS011;60520;49.182;-0.348;2022-08-19T10:37:07;0.63;;;0.63;;
72493;SDS011;60520;49.182;-0.348;2022-08-19T10:39:35;1.35;;;0.90;;
72493;SDS011;60520;49.182;-0.348;2022-08-19T10:42:05;1.05;;;0.60;;
72493;SDS011;60520;49.182;-0.348;2022-08-19T10:44:32;1.15;;;0.70;;
72493;SDS011;60520;49.182;-0.348;2022-08-19T10:47:00;0.85;;;0.73;;
72493;SDS011;60520;49.182;-0.348;2022-08-19T10:49:28;1.52;;;0.90;;
72493;SDS011;60520;49.182;-0.348;2022-08-19T10:51:55;0.93;;;0.73;;
72493;SDS011;60520;49.182;-0.348;2022-08-19T10:54:40;1.10;;;0.70;;
72493;SDS011;60520;49.182;-0.348;2022-08-19T10:57:26;0.90;;;0.60;;
72493;SDS011;60520;49.182;-0.348;2022-08-19T10:59:56;1.52;;;0.80;;
72493;SDS011;60520;49.182;-0.348;2022-08-19T11:02:24;1.15;;;0.80;;
72493;SDS011;60520;49.182;-0.348;2022-08-19T11:04:51;1.33;;;0.80;;
72493;SDS011;60520;49.182;-0.348;2022-08-19T11:07:18;0.88;;;0.60;;
72493;SDS011;60520;49.182;-0.348;2022-08-19T11:09:46;0.80;;;0.57;;
72493;SDS011;60520;49.182;-0.348;2022-08-19T11:12:13;0.85;;;0.70;;
72493;SDS011;60520;49.182;-0.348;2022-08-19T11:14:43;0.90;;;0.70;;
72493;SDS011;60520;49.182;-0.348;2022-08-19T11:17:10;0.75;;;0.70;;
72493;SDS011;60520;49.182;-0.348;2022-08-19T11:19:39;1.20;;;0.80;;
72493;SDS011;60520;49.182;-0.348;2022-08-19T11:22:07;1.05;;;0.80;;
72493;SDS011;60520;49.182;-0.348;2022-08-19T11:24:35;0.85;;;0.75;;
72493;SDS011;60520;49.182;-0.348;2022-08-19T11:27:04;0.95;;;0.63;;
72493;SDS011;60520;49.182;-0.348;2022-08-19T11:29:32;0.63;;;0.60;;
72493;SDS011;60520;49.182;-0.348;2022-08-19T11:32:03;0.77;;;0.70;;
72493;SDS011;60520;49.182;-0.348;2022-08-19T11:34:30;0.98;;;0.70;;
72493;SDS011;60520;49.182;-0.348;2022-08-19T11:36:57;0.73;;;0.68;;
72493;SDS011;60520;49.182;-0.348;2022-08-19T11:39:25;1.05;;;0.60;;
72493;SDS011;60520;49.182;-0.348;2022-08-19T11:41:53;1.45;;;0.70;;
72493;SDS011;60520;49.182;-0.348;2022-08-19T11:44:20;1.20;;;0.80;;
72493;SDS011;60520;49.182;-0.348;2022-08-19T11:46:47;1.15;;;0.75;;
72493;SDS011;60520;49.182;-0.348;2022-08-19T11:49:17;1.23;;;0.73;;
72493;SDS011;60520;49.182;-0.348;2022-08-19T11:51:45;0.85;;;0.60;;
72493;SDS011;60520;49.182;-0.348;2022-08-19T11:54:12;0.88;;;0.80;;
72493;SDS011;60520;49.182;-0.348;2022-08-19T11:56:40;0.95;;;0.50;;
72493;SDS011;60520;49.182;-0.348;2022-08-19T11:59:08;1.25;;;0.70;;
72493;SDS011;60520;49.182;-0.348;2022-08-19T12:01:35;0.80;;;0.63;;
72493;SDS011;60520;49.182;-0.348;2022-08-19T12:04:02;1.13;;;0.65;;
72493;SDS011;60520;49.182;-0.348;2022-08-19T12:06:32;1.00;;;0.70;;
72493;SDS011;60520;49.182;-0.348;2022-08-19T12:09:01;0.93;;;0.65;;
72493;SDS011;60520;49.182;-0.348;2022-08-19T12:11:28;0.60;;;0.60;;
72493;SDS011;60520;49.182;-0.348;2022-08-19T12:13:55;1.42;;;0.60;;
72493;SDS011;60520;49.182;-0.348;2022-08-19T12:16:24;1.35;;;0.70;;
72493;SDS011;60520;49.182;-0.348;2022-08-19T12:18:51;0.90;;;0.70;;
72493;SDS011;60520;49.182;-0.348;2022-08-19T12:21:19;1.10;;;0.68;;
72493;SDS011;60520;49.182;-0.348;2022-08-19T12:23:48;0.82;;;0.52;;
72493;SDS011;60520;49.182;-0.348;2022-08-19T12:26:16;0.50;;;0.50;;
72493;SDS011;60520;49.182;-0.348;2022-08-19T12:28:43;1.17;;;0.70;;
72493;SDS011;60520;49.182;-0.348;2022-08-19T12:31:13;0.93;;;0.60;;
72493;SDS011;60520;49.182;-0.348;2022-08-19T12:33:41;0.70;;;0.60;;
72493;SDS011;60520;49.182;-0.348;2022-08-19T12:36:10;0.75;;;0.52;;
72493;SDS011;60520;49.182;-0.348;2022-08-19T12:38:37;0.50;;;0.50;;
72493;SDS011;60520;49.182;-0.348;2022-08-19T12:41:08;0.65;;;0.50;;
72493;SDS011;60520;49.182;-0.348;2022-08-19T12:43:36;0.70;;;0.50;;
72493;SDS011;60520;49.182;-0.348;2022-08-19T12:46:03;1.00;;;0.60;;
72493;SDS011;60520;49.182;-0.348;2022-08-19T12:48:30;0.50;;;0.50;;
72493;SDS011;60520;49.182;-0.348;2022-08-19T12:50:58;0.45;;;0.43;;
72493;SDS011;60520;49.182;-0.348;2022-08-19T12:53:25;0.70;;;0.50;;
72493;SDS011;60520;49.182;-0.348;2022-08-19T12:55:54;0.90;;;0.70;;
72493;SDS011;60520;49.182;-0.348;2022-08-19T12:58:23;1.27;;;0.68;;
72493;SDS011;60520;49.182;-0.348;2022-08-19T13:00:51;0.77;;;0.60;;
72493;SDS011;60520;49.182;-0.348;2022-08-19T13:03:18;1.02;;;0.68;;
72493;SDS011;60520;49.182;-0.348;2022-08-19T13:05:47;0.75;;;0.50;;
72493;SDS011;60520;49.182;-0.348;2022-08-19T13:08:15;0.80;;;0.50;;
72493;SDS011;60520;49.182;-0.348;2022-08-19T13:10:42;0.90;;;0.60;;
72493;SDS011;60520;49.182;-0.348;2022-08-19T13:13:09;0.55;;;0.40;;
72493;SDS011;60520;49.182;-0.348;2022-08-19T13:15:39;0.63;;;0.55;;
72493;SDS011;60520;49.182;-0.348;2022-08-19T13:18:06;0.75;;;0.60;;
72493;SDS011;60520;49.182;-0.348;2022-08-19T13:20:35;0.85;;;0.70;;
72493;SDS011;60520;49.182;-0.348;2022-08-19T13:23:02;1.00;;;0.60;;
72493;SDS011;60520;49.182;-0.348;2022-08-19T13:25:30;1.60;;;0.70;;
72493;SDS011;60520;49.182;-0.348;2022-08-19T13:27:57;0.95;;;0.60;;
72493;SDS011;60520;49.182;-0.348;2022-08-19T13:30:24;0.80;;;0.68;;
72493;SDS011;60520;49.182;-0.348;2022-08-19T13:33:10;0.80;;;0.60;;
72493;SDS011;60520;49.182;-0.348;2022-08-19T13:35:39;0.60;;;0.50;;
72493;SDS011;60520;49.182;-0.348;2022-08-19T13:38:06;0.68;;;0.52;;
72493;SDS011;60520;49.182;-0.348;2022-08-19T13:40:34;0.60;;;0.40;;
72493;SDS011;60520;49.182;-0.348;2022-08-19T13:43:02;0.63;;;0.55;;
72493;SDS011;60520;49.182;-0.348;2022-08-19T13:45:29;1.45;;;0.60;;
72493;SDS011;60520;49.182;-0.348;2022-08-19T13:47:59;0.80;;;0.50;;
72493;SDS011;60520;49.182;-0.348;2022-08-19T13:50:31;1.20;;;0.60;;
72493;SDS011;60520;49.182;-0.348;2022-08-19T13:52:59;0.88;;;0.50;;
72493;SDS011;60520;49.182;-0.348;2022-08-19T13:55:27;0.50;;;0.50;;
72493;SDS011;60520;49.182;-0.348;2022-08-19T13:57:56;0.77;;;0.60;;
72493;SDS011;60520;49.182;-0.348;2022-08-19T14:00:24;0.70;;;0.55;;
72493;SDS011;60520;49.182;-0.348;2022-08-19T14:02:51;0.82;;;0.60;;
72493;SDS011;60520;49.182;-0.348;2022-08-19T14:05:19;0.60;;;0.47;;
72493;SDS011;60520;49.182;-0.348;2022-08-19T14:07:48;1.17;;;0.52;;
72493;SDS011;60520;49.182;-0.348;2022-08-19T14:10:15;0.77;;;0.50;;
72493;SDS011;60520;49.182;-0.348;2022-08-19T14:12:43;0.50;;;0.43;;
72493;SDS011;60520;49.182;-0.348;2022-08-19T14:15:11;0.70;;;0.60;;
72493;SDS011;60520;49.182;-0.348;2022-08-19T14:17:39;1.42;;;0.50;;
72493;SDS011;60520;49.182;-0.348;2022-08-19T14:20:07;0.65;;;0.60;;
72493;SDS011;60520;49.182;-0.348;2022-08-19T14:22:34;0.47;;;0.40;;
72493;SDS011;60520;49.182;-0.348;2022-08-19T14:25:03;1.08;;;0.60;;
72493;SDS011;60520;49.182;-0.348;2022-08-19T14:27:32;0.60;;;0.47;;
72493;SDS011;60520;49.182;-0.348;2022-08-19T14:29:59;0.68;;;0.45;;
72493;SDS011;60520;49.182;-0.348;2022-08-19T14:32:27;0.45;;;0.40;;
72493;SDS011;60520;49.182;-0.348;2022-08-19T14:34:54;0.55;;;0.50;;
72493;SDS011;60520;49.182;-0.348;2022-08-19T14:37:21;1.02;;;0.50;;
72493;SDS011;60520;49.182;-0.348;2022-08-19T14:39:48;1.00;;;0.50;;